Time,TemperatureF,DewpointF,PressureIn,WindDirection,WindDirectionDegrees,WindSpeedMPH,WindSpeedGustMPH,Humidity,HourlyPrecipIn,Conditions,Clouds,dailyrainin,SoftwareType,DateUTC
2013-11-07 00:23:00,62.0,62.0,30.12,South,181,1.0,5.0,100,0.02,,,0.32,,2013-11-07 06:23:00,
2013-11-07 00:52:00,62.0,62.0,30.13,SSE,161,1.0,4.0,100,0.04,,,0.35,,2013-11-07 06:52:00,
2013-11-07 01:22:00,62.0,62.0,30.11,SSE,159,3.0,4.0,100,0.06,,,0.38,,2013-11-07 07:22:00,
2013-11-07 01:42:00,62.0,62.0,30.11,SSE,161,1.0,3.0,100,0.05,,,0.39,,2013-11-07 07:42:00,
2013-11-07 01:52:00,62.0,62.0,30.11,SSE,161,1.0,3.0,100,0.05,,,0.39,,2013-11-07 07:52:00,
2013-11-07 02:22:00,62.0,62.0,30.11,South,184,2.0,3.0,100,0.03,,,0.41,,2013-11-07 08:22:00,
2013-11-07 02:52:00,62.0,62.0,30.12,NNW,346,23.0,27.0,100,0.03,,,0.43,,2013-11-07 08:52:00,
2013-11-07 03:11:00,54.0,54.0,30.13,North,351,14.0,23.0,100,0.03,,,0.44,,2013-11-07 09:11:00,
2013-11-07 03:21:00,54.0,54.0,30.13,North,351,14.0,23.0,100,0.03,,,0.44,,2013-11-07 09:21:00,
2013-11-07 03:42:00,53.0,53.0,30.15,North,350,8.0,15.0,100,0.03,,,0.44,,2013-11-07 09:42:00,
2013-11-07 03:53:00,53.0,53.0,30.15,North,350,8.0,15.0,100,0.03,,,0.44,,2013-11-07 09:53:00,
2013-11-07 04:23:00,51.0,51.0,30.17,North,0,12.0,19.0,100,0.02,,,0.46,,2013-11-07 10:23:00,
2013-11-07 04:40:00,50.0,50.0,30.19,NNW,348,9.0,17.0,100,0.03,,,0.48,,2013-11-07 10:40:00,
2013-11-07 04:42:00,51.0,51.0,30.18,North,0,4.0,16.0,100,0.02,,,0.46,,2013-11-07 10:42:00,
2013-11-07 04:52:00,51.0,51.0,30.18,North,0,4.0,16.0,100,0.02,,,0.46,,2013-11-07 10:52:00,
2013-11-07 05:12:00,50.0,50.0,30.19,NNW,348,9.0,17.0,100,0.03,,,0.48,,2013-11-07 11:12:00,
2013-11-07 05:22:00,50.0,50.0,30.19,NNW,348,9.0,17.0,100,0.03,,,0.48,,2013-11-07 11:22:00,
2013-11-07 06:22:00,47.0,47.0,30.22,North,356,14.0,15.0,100,0.00,,,0.48,,2013-11-07 12:22:00,
2013-11-07 06:52:00,47.0,47.0,30.25,NNW,340,16.0,19.0,100,0.00,,,0.48,,2013-11-07 12:52:00,
2013-11-07 07:21:00,46.0,46.0,30.26,North,355,9.0,21.0,100,0.00,,,0.48,,2013-11-07 13:21:00,
2013-11-07 07:52:00,45.0,44.0,30.29,North,359,6.0,18.0,97,0.00,,,0.48,,2013-11-07 13:52:00,
2013-11-07 08:22:00,46.0,45.0,30.30,North,0,11.0,18.0,95,0.00,,,0.48,,2013-11-07 14:22:00,
2013-11-07 08:42:00,46.0,44.0,30.31,North,0,11.0,15.0,92,0.00,,,0.48,,2013-11-07 14:42:00,
2013-11-07 08:52:00,46.0,44.0,30.31,North,0,11.0,15.0,92,0.00,,,0.48,,2013-11-07 14:52:00,
2013-11-07 09:02:00,46.0,44.0,30.31,North,0,11.0,15.0,92,0.00,,,0.48,,2013-11-07 15:02:00,
2013-11-07 09:22:00,46.0,44.0,30.32,North,3,6.0,18.0,91,0.00,,,0.48,,2013-11-07 15:22:00,
2013-11-07 09:43:00,46.0,42.0,30.32,North,0,14.0,24.0,86,0.01,,,0.49,,2013-11-07 15:43:00,
2013-11-07 09:53:00,46.0,42.0,30.32,North,0,14.0,24.0,86,0.01,,,0.49,,2013-11-07 15:53:00,
2013-11-07 10:04:00,46.0,42.0,30.32,North,0,14.0,24.0,86,0.01,,,0.49,,2013-11-07 16:04:00,
2013-11-07 10:23:00,48.0,43.0,30.32,North,0,4.0,13.0,82,0.01,,,0.49,,2013-11-07 16:23:00,
2013-11-07 10:52:00,49.0,43.0,30.32,NE,36,8.0,18.0,79,0.00,,,0.49,,2013-11-07 16:52:00,
2013-11-07 11:22:00,49.0,42.0,30.31,North,352,6.0,20.0,77,0.00,,,0.49,,2013-11-07 17:22:00,
2013-11-07 11:43:00,51.0,42.0,30.31,North,351,9.0,22.0,72,0.00,,,0.49,,2013-11-07 17:43:00,
2013-11-07 11:52:00,51.0,42.0,30.31,North,351,9.0,22.0,72,0.00,,,0.49,,2013-11-07 17:52:00,
2013-11-07 12:02:00,51.0,42.0,30.31,North,351,9.0,22.0,72,0.00,,,0.49,,2013-11-07 18:02:00,
2013-11-07 12:12:00,51.0,42.0,30.31,North,351,9.0,22.0,72,0.00,,,0.49,,2013-11-07 18:12:00,
2013-11-07 12:42:00,54.0,43.0,30.29,North,356,6.0,16.0,67,0.00,,,0.49,,2013-11-07 18:42:00,
2013-11-07 12:52:00,54.0,43.0,30.29,North,356,6.0,16.0,67,0.00,,,0.49,,2013-11-07 18:52:00,
2013-11-07 13:21:00,55.0,42.0,30.28,North,353,6.0,14.0,61,0.00,,,0.49,,2013-11-07 19:21:00,
2013-11-07 13:52:00,56.0,42.0,30.28,NNW,343,15.0,17.0,59,0.00,,,0.49,,2013-11-07 19:52:00,
2013-11-07 14:21:00,57.0,41.0,30.26,North,0,12.0,17.0,55,0.00,,,0.49,,2013-11-07 20:21:00,
2013-11-07 14:52:00,57.0,40.0,30.26,North,0,4.0,15.0,53,0.00,,,0.49,,2013-11-07 20:52:00,
2013-11-07 15:22:00,56.0,39.0,30.26,North,353,5.0,13.0,52,0.00,,,0.49,,2013-11-07 21:22:00,
2013-11-07 15:53:00,56.0,37.0,30.25,North,351,0.0,13.0,48,0.00,,,0.49,,2013-11-07 21:53:00,
2013-11-07 16:23:00,56.0,36.0,30.26,North,355,0.0,13.0,47,0.00,,,0.49,,2013-11-07 22:23:00,
2013-11-07 16:33:00,56.0,36.0,30.26,North,355,0.0,13.0,47,0.00,,,0.49,,2013-11-07 22:33:00,
2013-11-07 16:53:00,56.0,36.0,30.26,North,355,0.0,13.0,47,0.00,,,0.49,,2013-11-07 22:53:00,
2013-11-07 17:22:00,53.0,36.0,30.27,North,0,0.0,4.0,53,0.00,,,0.49,,2013-11-07 23:22:00,
2013-11-07 17:53:00,52.0,37.0,30.27,NW,324,0.0,1.0,57,0.00,,,0.49,,2013-11-07 23:53:00,
2013-11-07 18:12:00,51.0,37.0,30.27,NW,324,0.0,0.0,58,0.00,,,0.49,,2013-11-08 00:12:00,
2013-11-07 18:22:00,51.0,37.0,30.27,NW,324,0.0,0.0,58,0.00,,,0.49,,2013-11-08 00:22:00,
2013-11-07 18:52:00,50.0,38.0,30.28,North,0,0.0,1.0,62,0.00,,,0.49,,2013-11-08 00:52:00,
2013-11-07 19:12:00,49.0,37.0,30.28,North,358,0.0,0.0,63,0.00,,,0.49,,2013-11-08 01:12:00,
2013-11-07 19:22:00,49.0,37.0,30.28,North,358,0.0,0.0,63,0.00,,,0.49,,2013-11-08 01:22:00,
2013-11-07 19:52:00,48.0,36.0,30.29,North,354,2.0,2.0,63,0.00,,,0.49,,2013-11-08 01:52:00,
2013-11-07 20:02:00,48.0,36.0,30.29,North,354,2.0,2.0,63,0.00,,,0.49,,2013-11-08 02:02:00,
2013-11-07 20:21:00,48.0,35.0,30.29,North,356,0.0,8.0,61,0.00,,,0.49,,2013-11-08 02:21:00,
2013-11-07 20:42:00,48.0,36.0,30.29,North,359,0.0,8.0,62,0.00,,,0.49,,2013-11-08 02:42:00,
2013-11-07 20:52:00,48.0,36.0,30.29,North,359,0.0,8.0,62,0.00,,,0.49,,2013-11-08 02:52:00,
2013-11-07 21:21:00,47.0,35.0,30.30,North,355,0.0,7.0,63,0.00,,,0.49,,2013-11-08 03:21:00,
2013-11-07 21:44:00,47.0,35.0,30.31,NNW,341,3.0,9.0,63,0.00,,,0.49,,2013-11-08 03:44:00,
2013-11-07 22:13:00,45.0,34.0,30.31,North,352,6.0,9.0,65,0.00,,,0.38,,2013-11-08 04:13:00,
2013-11-07 22:23:00,45.0,34.0,30.31,North,352,6.0,9.0,65,0.00,,,0.38,,2013-11-08 04:23:00,
2013-11-07 22:43:00,45.0,35.0,30.31,North,357,0.0,7.0,68,0.00,,,0.30,,2013-11-08 04:43:00,
2013-11-07 22:54:00,45.0,35.0,30.31,North,357,0.0,7.0,68,0.00,,,0.30,,2013-11-08 04:54:00,
2013-11-07 23:23:00,43.0,34.0,30.32,NNW,329,0.0,1.0,71,0.00,,,0.19,,2013-11-08 05:23:00,
2013-11-07 23:34:00,43.0,34.0,30.32,NNW,329,0.0,1.0,71,0.00,,,0.19,,2013-11-08 05:34:00,
2013-11-07 23:54:00,43.0,35.0,30.32,NNW,329,0.0,0.0,72,0.00,,,0.18,,2013-11-08 05:54:00,